Login Failed! Either your Controller ID or Password is incorrect. Please try again.
Winnipeg Flight Information Region Airport Weather Information

Civilian

Winnipeg (CYWG) Weather
2019/01/22 10:00 CYWG 221000Z 21006KT 15SM OVC022 M12/M15 A3005 RMK SC8 SLP198
 
Portage la Prairie/Southport (CYPG) Weather
2019/01/22 04:00 CYPG 220400Z 20006KT 15SM OVC016 M11/M15 A3005 RMK SC8 SLP201
 
Thunder Bay (CYQT) Weather
2019/01/22 10:00 CYQT 221000Z 29002KT 2SM -SN OVC026 M12/M14 A3015 RMK SC8 SLP229
 
Regina (CYQR) Weather
2019/01/22 10:00 CYQR 221000Z 00000KT 15SM SKC M19/M21 A3010 RMK FROIN SLP248
 
Saskatoon (CYQT) Weather
2019/01/22 10:35 CYXE 221035Z 00000KT 12SM -SN BKN029 OVC120 M12/M14 A3008 RMK SC7AC1 SLP232
 


Military

Moose Jaw (CYMJ) Weather
2019/01/22 10:25 CYMJ 221025Z 30003KT 5SM BR OVC004 M08/M09 A3012 RMK ST8 SLP238
 
Weather Information
Winnipeg Airport Weather

Updated Tue Jan 22, 10:00 Zulu

Winds 210 at 06 knots
Visibility 15 statute miles
Temp. -12°C
Dew point -15°C
Altimiter 30.05

Click for full weather METAR

Who's Online

No positions online

FIR Information

New Controllers
 
Travis Chan C1
Bailey Brown C1
Owen Kane I1
 
Recent Promotions
 
Bailey Brown C1

Powered By